createdAt,value
2023-01-27T00:00:55.655Z,98579.41
2023-01-27T00:03:23.289Z,98575.91
2023-01-27T00:05:50.575Z,98577.91
2023-01-27T00:08:18.461Z,98589.88
2023-01-27T00:10:45.691Z,98580.44
2023-01-27T00:13:27.080Z,98580.34
2023-01-27T00:15:54.515Z,98587.69
2023-01-27T00:18:23.334Z,98577.22
2023-01-27T00:21:08.584Z,98578.94
2023-01-27T00:23:53.813Z,98580.56
2023-01-27T00:26:20.861Z,98569.25
2023-01-27T00:28:48.639Z,98575.53
2023-01-27T00:31:36.099Z,98576.19
2023-01-27T00:34:09.217Z,98564.22
2023-01-27T00:36:38.303Z,98572.31
2023-01-27T00:39:06.982Z,98575.91
2023-01-27T00:41:34.300Z,98580.00
2023-01-27T00:44:02.279Z,98579.25
2023-01-27T00:46:29.489Z,98579.31
2023-01-27T00:48:56.539Z,98574.78
2023-01-27T00:51:24.454Z,98574.84
2023-01-27T00:53:51.431Z,98580.25
2023-01-27T00:56:18.660Z,98576.44
2023-01-27T00:58:45.759Z,98578.84
2023-01-27T01:01:16.069Z,98577.22
2023-01-27T01:03:44.078Z,98578.84
2023-01-27T01:06:14.724Z,98572.22
2023-01-27T01:08:42.516Z,98585.94
2023-01-27T01:11:14.831Z,98581.00
2023-01-27T01:13:43.885Z,98585.72
2023-01-27T01:16:18.033Z,98595.31
2023-01-27T01:18:45.869Z,98588.47
2023-01-27T01:21:13.362Z,98603.91
2023-01-27T01:23:43.754Z,98595.34
2023-01-27T01:26:14.542Z,98598.75
2023-01-27T01:28:41.843Z,98593.56
2023-01-27T01:31:12.738Z,98596.97
2023-01-27T01:33:39.850Z,98591.28
2023-01-27T01:36:08.563Z,98586.84
2023-01-27T01:38:36.835Z,98587.69
2023-01-27T01:41:05.110Z,98584.22
2023-01-27T01:43:32.181Z,98584.84
2023-01-27T01:46:03.214Z,98580.06
2023-01-27T01:48:52.457Z,98585.09
2023-01-27T01:51:29.246Z,98580.00
2023-01-27T01:54:02.723Z,98579.31
2023-01-27T01:56:42.998Z,98584.69
2023-01-27T01:59:17.803Z,98577.31
2023-01-27T02:01:45.071Z,98579.78
2023-01-27T02:04:25.149Z,98570.28
2023-01-27T02:07:51.996Z,98572.88
2023-01-27T02:10:19.033Z,98567.63
2023-01-27T02:12:46.207Z,98572.00
2023-01-27T02:15:13.761Z,98558.06
2023-01-27T02:17:41.383Z,98559.38
2023-01-27T02:20:17.222Z,98559.59
2023-01-27T02:23:31.802Z,98557.44
2023-01-27T02:26:11.593Z,98567.06
2023-01-27T02:28:39.399Z,98571.00
2023-01-27T02:31:06.484Z,98561.94
2023-01-27T02:33:34.675Z,98572.38
2023-01-27T02:36:13.935Z,98560.34
2023-01-27T02:38:52.099Z,98562.69
2023-01-27T02:41:34.312Z,98566.47
2023-01-27T02:44:02.008Z,98568.13
2023-01-27T02:46:29.515Z,98563.91
2023-01-27T02:48:56.542Z,98559.53
2023-01-27T02:51:24.092Z,98554.34
2023-01-27T02:53:51.123Z,98549.75
2023-01-27T02:56:18.133Z,98550.13
2023-01-27T02:58:45.130Z,98554.66
2023-01-27T03:01:15.829Z,98564.28
2023-01-27T03:03:47.471Z,98558.28
2023-01-27T03:06:19.952Z,98560.78
2023-01-27T03:08:47.338Z,98569.72
2023-01-27T03:11:36.078Z,98566.59
2023-01-27T03:14:04.855Z,98572.56
2023-01-27T03:16:50.175Z,98573.31
2023-01-27T03:19:17.855Z,98566.25
2023-01-27T03:21:45.256Z,98570.69
2023-01-27T03:24:13.123Z,98566.38
2023-01-27T03:26:41.077Z,98567.03
2023-01-27T03:29:28.394Z,98566.38
2023-01-27T03:31:56.517Z,98571.78
2023-01-27T03:34:23.737Z,98572.94
2023-01-27T03:37:13.466Z,98568.13
2023-01-27T03:40:00.347Z,98565.75
2023-01-27T03:42:47.078Z,98567.59
2023-01-27T03:45:32.968Z,98571.53
2023-01-27T03:48:00.151Z,98556.22
2023-01-27T03:50:37.394Z,98567.31
2023-01-27T03:53:05.388Z,98562.13
2023-01-27T03:55:34.641Z,98563.53
2023-01-27T03:58:19.950Z,98572.13
2023-01-27T04:00:52.804Z,98574.81
2023-01-27T04:03:39.519Z,98577.59
2023-01-27T04:06:29.431Z,98576.56
2023-01-27T04:08:57.385Z,98582.75
2023-01-27T04:11:43.286Z,98578.53
2023-01-27T04:14:12.311Z,98583.69
2023-01-27T04:16:39.696Z,98577.78
2023-01-27T04:19:10.091Z,98581.38
2023-01-27T04:21:37.302Z,98580.66
2023-01-27T04:24:04.877Z,98583.16
2023-01-27T04:26:34.935Z,98575.91
2023-01-27T04:29:07.316Z,98583.44
2023-01-27T04:31:35.218Z,98573.06
2023-01-27T04:34:02.233Z,98573.91
2023-01-27T04:36:29.209Z,98588.25
2023-01-27T04:38:56.131Z,98586.66
2023-01-27T04:41:23.070Z,98582.50
2023-01-27T04:43:50.604Z,98585.22
2023-01-27T04:46:17.867Z,98588.63
2023-01-27T04:48:44.882Z,98594.78
2023-01-27T04:51:11.858Z,98590.41
2023-01-27T04:53:38.889Z,98589.47
2023-01-27T04:56:16.983Z,98585.06
2023-01-27T04:58:43.958Z,98590.84
2023-01-27T05:01:10.913Z,98590.97
2023-01-27T05:03:37.890Z,98603.81
2023-01-27T05:06:05.020Z,98600.41
2023-01-27T05:08:32.135Z,98598.94
2023-01-27T05:10:59.067Z,98605.28
2023-01-27T05:13:26.088Z,98605.38
2023-01-27T05:16:04.223Z,98601.31
2023-01-27T05:18:31.651Z,98609.38
2023-01-27T05:21:02.735Z,98604.22
2023-01-27T05:23:35.648Z,98606.22
2023-01-27T05:26:13.647Z,98609.53
2023-01-27T05:28:44.524Z,98605.22
2023-01-27T05:31:16.004Z,98606.84
2023-01-27T05:33:43.282Z,98604.13
2023-01-27T05:36:15.103Z,98609.56
2023-01-27T05:38:42.235Z,98609.09
2023-01-27T05:41:11.287Z,98606.59
2023-01-27T05:43:40.660Z,98609.00
2023-01-27T05:46:17.269Z,98614.91
2023-01-27T05:48:51.718Z,98619.63
2023-01-27T05:51:21.716Z,98618.59
2023-01-27T05:53:49.133Z,98619.81
2023-01-27T05:56:19.241Z,98623.19
2023-01-27T05:58:46.672Z,98640.31
2023-01-27T06:01:22.284Z,98627.63
2023-01-27T06:03:50.428Z,98615.22
2023-01-27T06:06:24.133Z,98620.38
2023-01-27T06:08:51.734Z,98626.34
2023-01-27T06:11:20.539Z,98620.66
2023-01-27T06:13:48.440Z,98631.84
2023-01-27T06:16:18.111Z,98629.38
2023-01-27T06:18:46.568Z,98636.16
2023-01-27T06:21:15.694Z,98644.22
2023-01-27T06:23:43.057Z,98638.13
2023-01-27T06:26:16.772Z,98641.66
2023-01-27T06:28:44.335Z,98646.91
2023-01-27T06:31:19.118Z,98649.72
2023-01-27T06:33:46.212Z,98639.84
2023-01-27T06:36:17.311Z,98644.88
2023-01-27T06:38:46.120Z,98648.41
2023-01-27T06:41:13.875Z,98650.81
2023-01-27T06:43:40.928Z,98666.53
2023-01-27T06:46:08.362Z,98669.63
2023-01-27T06:48:37.988Z,98677.25
2023-01-27T06:51:05.633Z,98686.69
2023-01-27T06:53:32.982Z,98694.28
2023-01-27T06:56:01.749Z,98697.97
2023-01-27T06:58:29.502Z,98698.63
2023-01-27T07:00:57.006Z,98701.38
2023-01-27T07:03:24.572Z,98693.31
2023-01-27T07:05:52.785Z,98697.19
2023-01-27T07:08:19.859Z,98698.75
2023-01-27T07:10:46.821Z,98701.19
2023-01-27T07:13:15.237Z,98707.53
2023-01-27T07:15:42.796Z,98705.94
2023-01-27T07:18:14.357Z,98709.00
2023-01-27T07:20:42.249Z,98710.72
2023-01-27T07:23:10.319Z,98718.75
2023-01-27T07:25:37.449Z,98715.75
2023-01-27T07:28:04.577Z,98721.72
2023-01-27T07:30:34.047Z,98723.16
2023-01-27T07:33:12.818Z,98726.53
2023-01-27T07:35:41.876Z,98730.84
2023-01-27T07:38:09.443Z,98728.94
2023-01-27T07:40:36.703Z,98729.50
2023-01-27T07:43:04.355Z,98727.59
2023-01-27T07:45:34.222Z,98728.66
2023-01-27T07:48:04.653Z,98728.72
2023-01-27T07:50:32.054Z,98732.34
2023-01-27T07:53:04.017Z,98732.06
2023-01-27T07:55:32.570Z,98736.53
2023-01-27T07:57:59.763Z,98733.50
2023-01-27T08:00:28.257Z,98743.47
2023-01-27T08:02:57.084Z,98746.88
2023-01-27T08:05:24.577Z,98741.78
2023-01-27T08:07:54.541Z,98739.94
2023-01-27T08:10:22.281Z,98738.31
2023-01-27T08:12:49.327Z,98752.28
2023-01-27T08:15:18.845Z,98744.72
2023-01-27T08:17:56.586Z,98745.56
2023-01-27T08:20:25.484Z,98738.75
2023-01-27T08:22:52.836Z,98736.38
2023-01-27T08:25:20.476Z,98743.84
2023-01-27T08:27:51.389Z,98751.03
2023-01-27T08:30:19.058Z,98756.41
2023-01-27T08:32:46.198Z,98761.69
2023-01-27T08:35:13.228Z,98750.91
2023-01-27T08:37:40.210Z,98759.72
2023-01-27T08:40:07.955Z,98768.75
2023-01-27T08:42:34.913Z,98772.34
2023-01-27T08:45:02.310Z,98771.66
2023-01-27T08:47:29.231Z,98769.69
2023-01-27T08:49:56.212Z,98769.16
2023-01-27T08:52:23.514Z,98764.47
2023-01-27T08:54:50.435Z,98772.38
2023-01-27T08:57:17.432Z,98759.16
2023-01-27T08:59:46.134Z,98751.13
2023-01-27T09:02:14.369Z,98753.81
2023-01-27T09:04:44.243Z,98764.13
2023-01-27T09:07:11.893Z,98769.59
2023-01-27T09:09:39.375Z,98760.94
2023-01-27T09:12:06.897Z,98767.75
2023-01-27T09:14:35.680Z,98767.47
2023-01-27T09:17:03.034Z,98769.56
2023-01-27T09:19:30.397Z,98775.59
2023-01-27T09:21:57.789Z,98767.56
2023-01-27T09:24:25.179Z,98771.53
2023-01-27T09:26:52.348Z,98773.97
2023-01-27T09:29:19.763Z,98779.19
2023-01-27T09:31:47.543Z,98779.69
2023-01-27T09:34:15.035Z,98781.72
2023-01-27T09:36:47.436Z,98784.28
2023-01-27T09:39:17.598Z,98790.97
2023-01-27T09:42:09.716Z,98788.28
2023-01-27T09:45:04.751Z,98774.09
2023-01-27T09:47:53.638Z,98788.78
2023-01-27T09:50:44.988Z,98789.91
2023-01-27T09:54:02.497Z,98778.19
2023-01-27T09:56:40.380Z,98774.63
2023-01-27T09:59:28.173Z,98786.13
2023-01-27T10:02:33.995Z,98783.22
2023-01-27T10:05:30.274Z,98787.25
2023-01-27T10:08:06.063Z,98792.47
2023-01-27T10:11:07.013Z,98789.91
2023-01-27T10:14:06.600Z,98792.00
2023-01-27T10:16:49.229Z,98796.03
2023-01-27T10:19:54.119Z,98782.47
2023-01-27T10:22:40.163Z,98784.13
2023-01-27T10:25:34.004Z,98785.78
2023-01-27T10:28:23.523Z,98784.22
2023-01-27T10:31:01.721Z,98799.16
2023-01-27T10:33:52.149Z,98792.38
2023-01-27T10:36:29.982Z,98802.00
2023-01-27T10:39:41.318Z,98791.75
2023-01-27T10:43:02.065Z,98800.31
2023-01-27T10:46:00.626Z,98795.56
2023-01-27T10:48:55.495Z,98806.03
2023-01-27T10:51:31.671Z,98805.06
2023-01-27T10:54:44.770Z,98796.31
2023-01-27T10:57:41.141Z,98797.28
2023-01-27T11:03:49.466Z,98781.69
2023-01-27T11:06:32.523Z,98780.75
2023-01-27T11:09:30.671Z,98782.81
2023-01-27T11:12:02.986Z,98780.00
2023-01-27T11:14:41.860Z,98774.38
2023-01-27T11:17:37.651Z,98773.34
2023-01-27T11:20:36.951Z,98779.16
2023-01-27T11:23:09.984Z,98780.03
2023-01-27T11:26:17.687Z,98773.94
2023-01-27T11:29:22.486Z,98776.03
2023-01-27T11:32:02.038Z,98774.97
2023-01-27T11:34:58.541Z,98786.66
2023-01-27T11:37:25.410Z,98789.91
2023-01-27T11:39:52.509Z,98787.47
2023-01-27T11:42:21.274Z,98776.84
2023-01-27T11:44:58.087Z,98775.16
2023-01-27T11:47:38.933Z,98765.63
2023-01-27T11:50:08.205Z,98771.63
2023-01-27T11:52:35.596Z,98770.78
2023-01-27T11:55:20.767Z,98765.28
2023-01-27T11:58:17.463Z,98772.63
2023-01-27T12:00:51.937Z,98763.03
2023-01-27T12:04:07.599Z,98758.31
2023-01-27T12:06:59.789Z,98753.94
2023-01-27T12:09:40.313Z,98754.66
2023-01-27T12:12:19.395Z,98755.31
2023-01-27T12:14:57.631Z,98753.94
2023-01-27T12:17:31.648Z,98746.41
2023-01-27T12:20:06.397Z,98745.31
2023-01-27T12:22:37.626Z,98736.81
2023-01-27T12:25:15.357Z,98735.50
2023-01-27T12:27:55.041Z,98738.19
2023-01-27T12:30:25.081Z,98739.63
2023-01-27T12:32:53.177Z,98732.69
2023-01-27T12:35:35.592Z,98737.97
2023-01-27T12:38:17.095Z,98722.28
2023-01-27T12:40:46.554Z,98739.66
2023-01-27T12:43:17.490Z,98735.28
2023-01-27T12:45:45.081Z,98733.69
2023-01-27T12:48:19.901Z,98728.00
2023-01-27T12:50:50.181Z,98717.06
2023-01-27T12:53:27.611Z,98728.25
2023-01-27T12:56:12.655Z,98726.16
2023-01-27T12:58:54.791Z,98728.69
2023-01-27T13:01:37.779Z,98719.09
2023-01-27T13:04:27.076Z,98730.19
2023-01-27T13:07:01.890Z,98725.75
2023-01-27T13:09:53.697Z,98730.09
2023-01-27T13:12:30.073Z,98733.56
2023-01-27T13:15:23.775Z,98739.44
2023-01-27T13:17:53.683Z,98738.91
2023-01-27T13:20:38.006Z,98740.56
2023-01-27T13:23:10.892Z,98739.53
2023-01-27T13:25:57.994Z,98741.09
2023-01-27T13:28:51.230Z,98742.19
2023-01-27T13:32:05.859Z,98743.31
2023-01-27T13:34:59.946Z,98756.84
2023-01-27T13:37:38.049Z,98755.44
2023-01-27T13:40:31.092Z,98754.66
2023-01-27T13:43:13.635Z,98763.03
2023-01-27T13:45:41.792Z,98756.44
2023-01-27T13:48:22.506Z,98766.72
2023-01-27T13:51:08.298Z,98776.31
2023-01-27T13:53:35.726Z,98782.25
2023-01-27T13:56:23.361Z,98778.66
2023-01-27T13:59:01.853Z,98776.91
2023-01-27T14:01:49.025Z,98792.69
2023-01-27T14:04:55.498Z,98795.63
2023-01-27T14:07:28.685Z,98787.09
2023-01-27T14:10:15.695Z,98788.78
2023-01-27T14:13:07.152Z,98780.94
2023-01-27T14:15:55.837Z,98788.22
2023-01-27T14:18:36.095Z,98798.06
2023-01-27T14:21:34.723Z,98792.31
2023-01-27T14:24:21.202Z,98795.59
2023-01-27T14:26:51.437Z,98786.03
2023-01-27T14:29:27.288Z,98793.41
2023-01-27T14:32:09.044Z,98797.66
2023-01-27T14:34:56.630Z,98807.41
2023-01-27T14:37:35.824Z,98802.59
2023-01-27T14:40:18.396Z,98804.09
2023-01-27T14:42:58.652Z,98798.91
2023-01-27T14:45:36.894Z,98791.63
2023-01-27T14:48:44.307Z,98784.25
2023-01-27T14:51:52.796Z,98788.34
2023-01-27T14:54:32.030Z,98793.03
2023-01-27T14:57:46.648Z,98796.53
2023-01-27T15:00:14.088Z,98805.94
2023-01-27T15:03:09.237Z,98797.38
2023-01-27T15:06:01.946Z,98799.03
2023-01-27T15:08:47.752Z,98790.56
2023-01-27T15:11:24.359Z,98790.72
2023-01-27T15:14:03.840Z,98782.63
2023-01-27T15:16:51.308Z,98780.97
2023-01-27T15:19:43.398Z,98770.13
2023-01-27T15:22:52.276Z,98781.34
2023-01-27T15:25:52.063Z,98781.78
2023-01-27T15:28:29.522Z,98782.03
2023-01-27T15:31:14.974Z,98790.88
2023-01-27T15:34:04.000Z,98792.63
2023-01-27T15:36:38.407Z,98791.75
2023-01-27T15:39:12.289Z,98802.22
2023-01-27T15:41:52.178Z,98806.84
2023-01-27T15:44:52.780Z,98792.53
2023-01-27T15:47:21.932Z,98801.09
2023-01-27T15:49:56.351Z,98802.63
2023-01-27T15:52:30.811Z,98809.41
2023-01-27T15:55:04.832Z,98808.19
2023-01-27T15:57:36.852Z,98817.25
2023-01-27T16:00:29.941Z,98826.16
2023-01-27T16:03:02.559Z,98831.88
2023-01-27T16:05:44.533Z,98830.66
2023-01-27T16:08:14.822Z,98838.50
2023-01-27T16:10:42.890Z,98840.53
2023-01-27T16:13:22.543Z,98849.38
2023-01-27T16:16:10.214Z,98851.13
2023-01-27T16:18:46.182Z,98852.06
2023-01-27T16:21:50.452Z,98853.09
2023-01-27T16:24:26.776Z,98851.38
2023-01-27T16:27:16.936Z,98853.69
2023-01-27T16:29:59.335Z,98855.56
2023-01-27T16:32:39.862Z,98848.75
2023-01-27T16:35:16.581Z,98857.38
2023-01-27T16:38:22.913Z,98859.41
2023-01-27T16:40:59.014Z,98855.31
2023-01-27T16:43:32.802Z,98862.19
2023-01-27T16:46:02.042Z,98856.84
2023-01-27T16:48:41.993Z,98866.53
2023-01-27T16:51:26.244Z,98855.31
2023-01-27T16:53:57.399Z,98858.06
2023-01-27T16:56:28.895Z,98860.94
2023-01-27T16:59:08.946Z,98862.03
2023-01-27T17:01:54.334Z,98859.25
2023-01-27T17:04:39.832Z,98860.09
2023-01-27T17:07:12.052Z,98861.88
2023-01-27T17:09:57.590Z,98864.91
2023-01-27T17:12:38.755Z,98863.03
2023-01-27T17:15:37.020Z,98858.44
2023-01-27T17:18:09.905Z,98858.19
2023-01-27T17:20:41.695Z,98850.47
2023-01-27T17:23:29.079Z,98859.22
2023-01-27T17:25:56.162Z,98863.69
2023-01-27T17:28:26.698Z,98857.34
2023-01-27T17:31:03.686Z,98861.81
2023-01-27T17:33:33.169Z,98864.25
2023-01-27T17:36:10.394Z,98866.47
2023-01-27T17:38:50.203Z,98870.13
2023-01-27T17:41:46.900Z,98867.59
2023-01-27T17:44:15.147Z,98867.22
2023-01-27T17:46:42.504Z,98869.88
2023-01-27T17:49:16.341Z,98873.19
2023-01-27T17:51:51.472Z,98875.94
2023-01-27T17:54:34.449Z,98878.00
2023-01-27T17:57:16.609Z,98886.13
2023-01-27T18:00:14.327Z,98887.31
2023-01-27T18:02:53.585Z,98882.94
2023-01-27T18:05:24.183Z,98879.28
2023-01-27T18:07:51.498Z,98874.72
2023-01-27T18:10:36.932Z,98877.47
2023-01-27T18:13:19.215Z,98884.28
2023-01-27T18:15:51.384Z,98880.88
2023-01-27T18:18:33.489Z,98881.19
2023-01-27T18:21:25.767Z,98885.03
2023-01-27T18:23:57.585Z,98881.91
2023-01-27T18:26:33.671Z,98889.25
2023-01-27T18:29:22.636Z,98879.09
2023-01-27T18:32:08.364Z,98883.34
2023-01-27T18:34:45.848Z,98881.59
2023-01-27T18:37:36.317Z,98882.56
2023-01-27T18:40:27.751Z,98883.59
2023-01-27T18:42:56.085Z,98885.38
2023-01-27T18:45:24.138Z,98893.31
2023-01-27T18:47:51.471Z,98886.34
2023-01-27T18:50:23.494Z,98882.88
2023-01-27T18:52:51.808Z,98884.59
2023-01-27T18:55:26.673Z,98885.44
2023-01-27T18:57:56.406Z,98879.84
2023-01-27T19:00:35.918Z,98893.94
2023-01-27T19:03:03.807Z,98890.44
2023-01-27T19:05:35.531Z,98892.06
2023-01-27T19:08:03.791Z,98888.75
2023-01-27T19:10:33.769Z,98884.44
2023-01-27T19:13:03.091Z,98893.59
2023-01-27T19:15:35.451Z,98893.91
2023-01-27T19:18:34.609Z,98892.72
2023-01-27T19:21:02.673Z,98894.06
2023-01-27T19:23:30.323Z,98900.22
2023-01-27T19:25:59.499Z,98896.19
2023-01-27T19:28:29.847Z,98898.94
2023-01-27T19:30:57.688Z,98904.13
2023-01-27T19:33:26.525Z,98906.91
2023-01-27T19:36:03.177Z,98899.88
2023-01-27T19:38:31.137Z,98896.47
2023-01-27T19:40:58.498Z,98901.69
2023-01-27T19:43:25.464Z,98904.63
2023-01-27T19:45:52.676Z,98916.13
2023-01-27T19:48:22.377Z,98911.63
2023-01-27T19:50:50.473Z,98909.28
2023-01-27T19:53:19.624Z,98920.50
2023-01-27T19:55:48.284Z,98912.56
2023-01-27T19:58:24.809Z,98913.31
2023-01-27T20:00:53.164Z,98916.78
2023-01-27T20:03:20.719Z,98913.16
2023-01-27T20:05:48.313Z,98921.13
2023-01-27T20:08:17.886Z,98923.50
2023-01-27T20:10:45.718Z,98921.25
2023-01-27T20:13:20.543Z,98921.22
2023-01-27T20:15:48.219Z,98921.16
2023-01-27T20:18:16.874Z,98924.88
2023-01-27T20:20:44.808Z,98927.72
2023-01-27T20:23:13.874Z,98930.78
2023-01-27T20:25:41.068Z,98931.00
2023-01-27T20:28:09.116Z,98929.94
2023-01-27T20:30:36.606Z,98932.78
2023-01-27T20:33:04.662Z,98943.28
2023-01-27T20:35:32.333Z,98932.06
2023-01-27T20:37:59.460Z,98931.25
2023-01-27T20:40:29.161Z,98940.00
2023-01-27T20:42:56.374Z,98941.22
2023-01-27T20:45:24.233Z,98946.47
2023-01-27T20:47:53.231Z,98948.44
2023-01-27T20:50:23.778Z,98947.56
2023-01-27T20:52:52.602Z,98951.31
2023-01-27T20:55:19.925Z,98954.63
2023-01-27T20:57:47.837Z,98951.25
2023-01-27T21:00:19.728Z,98957.94
2023-01-27T21:02:47.569Z,98958.84
2023-01-27T21:05:15.831Z,98953.06
2023-01-27T21:07:43.454Z,98967.66
2023-01-27T21:10:11.396Z,98957.91
2023-01-27T21:12:38.854Z,98966.41
2023-01-27T21:15:09.649Z,98971.56
2023-01-27T21:17:37.570Z,98972.31
2023-01-27T21:20:06.332Z,98971.47
2023-01-27T21:22:34.687Z,98976.06
2023-01-27T21:25:02.127Z,98972.06
2023-01-27T21:27:29.515Z,98973.78
2023-01-27T21:29:56.513Z,98969.56
2023-01-27T21:32:23.480Z,98974.00
2023-01-27T21:34:50.464Z,98971.69
2023-01-27T21:37:17.778Z,98979.25
2023-01-27T21:39:45.129Z,98976.88
2023-01-27T21:42:14.534Z,98975.97
2023-01-27T21:45:00.453Z,98970.28
2023-01-27T21:47:27.817Z,98967.69
2023-01-27T21:50:00.764Z,98961.41
2023-01-27T21:52:39.005Z,98964.44
2023-01-27T21:55:24.081Z,98965.50
2023-01-27T21:57:53.398Z,98965.56
2023-01-27T22:00:26.137Z,98952.72
2023-01-27T22:03:02.933Z,98963.63
2023-01-27T22:05:32.163Z,98960.44
2023-01-27T22:08:01.963Z,98958.84
2023-01-27T22:10:30.354Z,98963.41
2023-01-27T22:12:59.160Z,98955.00
2023-01-27T22:15:30.511Z,98955.03
2023-01-27T22:17:58.337Z,98957.50
2023-01-27T22:20:26.202Z,98957.69
2023-01-27T22:22:53.809Z,98959.13
2023-01-27T22:25:21.659Z,98952.31
2023-01-27T22:27:49.006Z,98955.13
2023-01-27T22:30:18.354Z,98955.72
2023-01-27T22:32:47.138Z,98953.38
2023-01-27T22:35:16.431Z,98956.75
2023-01-27T22:37:44.595Z,98966.56
2023-01-27T22:40:13.005Z,98962.56
2023-01-27T22:42:40.314Z,98969.09
2023-01-27T22:45:11.381Z,98965.66
2023-01-27T22:47:38.869Z,98975.31
2023-01-27T22:50:06.427Z,98973.66
2023-01-27T22:52:36.751Z,98975.06
2023-01-27T22:55:09.037Z,98968.03
2023-01-27T22:57:36.172Z,98966.72
2023-01-27T23:00:04.096Z,98968.28
2023-01-27T23:02:31.536Z,98973.09
2023-01-27T23:04:59.302Z,98968.28
2023-01-27T23:07:26.321Z,98955.88
2023-01-27T23:09:53.258Z,98965.91
2023-01-27T23:12:20.265Z,98967.81
2023-01-27T23:14:47.162Z,98961.13
2023-01-27T23:17:14.221Z,98963.41
2023-01-27T23:19:41.191Z,98960.22
2023-01-27T23:22:08.158Z,98962.94
2023-01-27T23:24:35.561Z,98962.34
2023-01-27T23:27:02.974Z,98964.16
2023-01-27T23:29:30.336Z,98956.56
2023-01-27T23:31:57.984Z,98954.41
2023-01-27T23:34:25.602Z,98947.22
2023-01-27T23:36:52.684Z,98957.88
2023-01-27T23:39:20.125Z,98957.38
2023-01-27T23:41:47.491Z,98956.19
2023-01-27T23:44:14.535Z,98964.34
2023-01-27T23:46:43.287Z,98967.22
2023-01-27T23:49:12.246Z,98966.56
2023-01-27T23:51:39.247Z,98970.19
2023-01-27T23:54:06.605Z,98964.06
2023-01-27T23:56:33.597Z,98960.50
2023-01-27T23:59:01.310Z,98958.84
